首页
METAR-TAF:

METAR-TAF

机场 :

Cairo Regional Airport

开罗, 伊利诺伊州, 美国

纬度: 37-03-52N, 经度: 089-13-10W, 海拔: 98米

当前天气观测

该预报发布于32分钟前的07:15 UTC
风速4节,风向北转东北
温度 8°C
湿度 87%
气压 1019 hPa
能見度: 16.1公里
散云层高于2600英尺
阴天层高于4600英尺

METAR: KCIR 050715Z AUTO 03004KT 10SM SCT026 OVC046 08/06 A3009 RMK AO2 T00800060

时间: 02:47 (07:47 UTC)


TAF: 丢失

超过4000个机场的气象观测和天气预报(METAR&TAF报告)。

可查询的气象台以黄色和红色小点在地图上表示。

将鼠标移到小点上方,可查看气象台名称。

然后点击查看天气观测和预报。

如需切换地图:点击带黑十字的绿色按钮放大地图;点击带横线的绿色按钮缩小地图;或者点击绿色箭头查看邻近地区的地图。


METAR-TAF: